Aérodrome :
LOGIN :

S'inscrire | Disclaimer

   EN    FR    IT 

 










Légende :    VFR   VFR Marginal   IFR   IFR Intensif   IFR Très Intensif
Visi : 
Plafond : 
>= 8 km
>= 3000ft
5 à 8 km
1000 à 3000 ft
1500m à 5 km
500 à 1000 ft
800 à 1500m
200 à 500 ft
< 800m
< 200 ft
Symboles :   Orages  Brouillard  Fortes neiges  Fortes précipitations  Vent > 20 kt
SIGMETs :   Divers  Orages  Givrage  Turbulence  Onde Orograph.  Cendres Volcan.







- Altitude de l'aérodrome : 257 ft
- Code IATA : MAN
- Voir les cartes d'approche


EGCC - Manchester

DERNIER METAR :
  • 231620Z 29012KT 9999 FEW035 18/11 Q1012 TEMPO SHRA

METARs EXPIRÉS :
  • 231550Z 31011KT 9999 FEW034 19/10 Q1011
  • 231520Z 32008KT 9999 VCSH FEW036TCU 19/11 Q1011 TEMPO SHRA
  • 231450Z 30007KT 270V340 9999 -SHRA SCT038TCU 18/11 Q1011 TEMPO SHRA
  • 231420Z 29007KT 260V320 9999 VCSH FEW040TCU 20/10 Q1011 TEMPO SHRA
  • 231350Z 33007KT 9999 FEW042TCU 19/10 Q1011 TEMPO SHRA

TAF AMD TAF EGCC
Valide du 23 à 13h jusqu'au 24 à 18h UTC


231329Z 2313/2418 30009KT 9999 SCT025
PROB40
TEMPO 2313/2317 7000 SHRA
TEMPO 2317/2403 8000 -RA BKN010
PROB30
TEMPO 2317/2403 RA
ATIS : +44 161 499 2324
Pas de NOTAMs connus pour ce terrain.



MET'MAP, la Météo Aéronautique d'un coup d'oeil ! - Copyright ORBIFLY Décembre 2007 - Disclaimer

ORBIFLY MET'MAP TEAM :

Programmation & Développement : Alexandra Zaïnal
Conception & Développement : Baudouin d'Aumeries
Co-Programmation & Développement : Marc-Olivier Méhu
Soutien technique & logistique : Manuel Goepfert

Contact : metmap@orbifly.com




SOURCES & CREDITS :

   NOAA